KDLF/DLF METAR and TAF weather

Enter ICAO airport designator
Station Type Date Time Source
KDLF METAR 2020/09/19 23:56 UTC NOAA

KDLF 192356Z AUTO 03004KT 10SM CLR 30/13 A3001 RMK AO2 SLP152 T02970134 10309 20273 56008 CHINO RWY31 $


Station Type Date Time Source
KDLF Decoded METAR 2020/09/19 23:56 UTC NOAA

Laughlin, Laughlin Air Force Base Auxiliary Airfield, TX, United States (KDLF) 29-07-00N 100-28-00W 294M
Sep 19, 2020 - 07:56 PM EDT / 2020.09.19 2356 UTC
Wind: from the NNE (030 degrees) at 5 MPH (4 KT):0
Visibility: 10 mile(s):0
Sky conditions: clear
Temperature: 85.5 F (29.7 C)
Dew Point: 56.1 F (13.4 C)
Relative Humidity: 36%
Pressure (altimeter): 30.01 in. Hg (1016 hPa)
Pressure tendency: 0.02 inches (0.8 hPa) lower than three hours ago
ob: KDLF 192356Z AUTO 03004KT 10SM CLR 30/13 A3001 RMK AO2 SLP152 T02970134 10309 20273 56008 CHINO RWY31
cycle: 0

Station Type Date Time Source
KDLF TAF 2020/09/19 00:57 UTC NOAA

TAF TAF
AMD KDLF 190050Z 1900/2001 04005KT 9999 SCT040 BKN070 QNH2998INS
BECMG 1908/1909 06005KT 9999 FEW040 SCT060 QNH3000INS
BECMG 1916/1917 06010KT 9999 SCT060 QNH3007INS TX29/1900Z TN20/1911Z LAST NO
AMDS AFT 1900 NEXT 2018

Example: see airport list